Time;durP1;ratioP1;P1;durP2;ratioP2;P2;SDS_P1;SDS_P2;PMS_P1;PMS_P2;Temp;Humidity;BMP_temperature;BMP_pressure;BME280_temperature;BME280_humidity;BME280_pressure;Samples;Min_cycle;Max_cycle;Signal;HPM_P1;HPM_P2
2021/04/08 00:02:09;;;;;;;3.80;1.98;;;3.70;99.90;;;;;;5013669;28;20030;-53
2021/04/08 00:04:36;;;;;;;2.85;1.90;;;3.70;99.90;;;;;;5013337;28;20025;-51
2021/04/08 00:07:01;;;;;;;3.10;2.20;;;3.80;99.90;;;;;;5013473;28;20030;-52
2021/04/08 00:09:27;;;;;;;2.38;1.67;;;3.80;99.90;;;;;;5013554;28;20113;-51
2021/04/08 00:11:57;;;;;;;2.38;1.70;;;3.70;99.90;;;;;;4980921;28;20042;-53
2021/04/08 00:14:27;;;;;;;2.72;1.85;;;3.70;99.90;;;;;;5013129;28;20030;-51
2021/04/08 00:16:53;;;;;;;2.90;2.00;;;3.80;99.90;;;;;;5010636;28;20030;-50
2021/04/08 00:19:20;;;;;;;3.25;2.28;;;3.80;99.90;;;;;;5013305;28;20503;-53
2021/04/08 00:21:46;;;;;;;5.13;2.30;;;3.80;99.90;;;;;;5013208;28;20033;-52
2021/04/08 00:24:11;;;;;;;2.63;1.65;;;3.80;99.90;;;;;;5021025;28;20040;-52
2021/04/08 00:26:37;;;;;;;4.38;2.53;;;3.80;99.90;;;;;;5054262;28;20049;-52
2021/04/08 00:29:03;;;;;;;3.50;1.80;;;3.80;99.90;;;;;;4987545;28;20037;-51
2021/04/08 00:31:29;;;;;;;2.95;2.10;;;3.80;99.90;;;;;;5055122;28;20159;-52
2021/04/08 00:33:55;;;;;;;3.78;2.45;;;3.70;99.90;;;;;;4971064;28;20044;-53
2021/04/08 00:36:21;;;;;;;3.50;2.33;;;3.60;99.90;;;;;;5054695;28;20553;-53
2021/04/08 00:38:46;;;;;;;5.38;2.15;;;3.60;99.90;;;;;;5054906;28;20028;-51
2021/04/08 00:41:12;;;;;;;6.90;2.75;;;3.60;99.90;;;;;;5054556;28;20059;-51
2021/04/08 00:43:38;;;;;;;5.95;2.72;;;3.70;99.90;;;;;;5019884;28;20029;-51
2021/04/08 00:46:04;;;;;;;7.15;4.20;;;3.60;99.90;;;;;;5019610;28;20056;-51
2021/04/08 00:48:30;;;;;;;7.22;4.15;;;3.70;99.90;;;;;;5054522;28;20365;-50
2021/04/08 00:50:55;;;;;;;5.57;3.00;;;3.60;99.90;;;;;;5019685;28;20091;-54
2021/04/08 00:53:25;;;;;;;5.57;3.40;;;3.70;99.90;;;;;;5019578;28;20118;-53
2021/04/08 00:55:55;;;;;;;7.50;3.83;;;3.60;99.90;;;;;;5054252;28;20053;-50
2021/04/08 00:58:22;;;;;;;9.27;5.70;;;3.70;99.90;;;;;;5053791;28;20036;-52
2021/04/08 01:00:48;;;;;;;8.27;5.55;;;3.70;99.90;;;;;;5054105;28;20063;-50
2021/04/08 01:03:15;;;;;;;9.63;5.15;;;3.60;99.90;;;;;;5054137;28;20024;-50
2021/04/08 01:05:41;;;;;;;5.88;3.78;;;3.60;99.90;;;;;;5053866;28;20048;-50
2021/04/08 01:08:07;;;;;;;5.15;2.15;;;3.60;99.90;;;;;;5054184;28;20025;-50
2021/04/08 01:10:34;;;;;;;4.38;2.03;;;3.70;99.90;;;;;;5019221;28;20099;-51
2021/04/08 01:13:03;;;;;;;3.35;2.30;;;3.60;99.90;;;;;;5054410;28;20025;-50
2021/04/08 01:15:30;;;;;;;3.25;2.25;;;3.70;99.90;;;;;;5053877;28;20111;-51
2021/04/08 01:18:04;;;;;;;5.75;2.67;;;;;;;;;;5035625;28;20111;-50
2021/04/08 01:20:52;;;;;;;5.38;2.72;;;3.60;99.90;;;;;;5053938;28;20104;-50
2021/04/08 01:23:56;;;;;;;5.50;3.35;;;3.60;99.90;;;;;;5054153;28;20029;-51
2021/04/08 01:26:40;;;;;;;5.03;3.28;;;3.50;99.90;;;;;;4972957;28;20058;-50
2021/04/08 01:29:29;;;;;;;4.30;2.65;;;3.50;99.90;;;;;;4973043;28;20042;-51
2021/04/08 01:31:58;;;;;;;2.75;2.35;;;3.50;99.90;;;;;;4972962;28;20075;-50
2021/04/08 01:34:26;;;;;;;4.82;2.05;;;3.50;99.90;;;;;;4973101;28;20037;-50
2021/04/08 01:36:56;;;;;;;4.53;2.80;;;3.50;99.90;;;;;;4972790;28;20035;-50
2021/04/08 01:39:23;;;;;;;3.78;2.72;;;3.50;99.90;;;;;;4971969;28;20069;-50
2021/04/08 01:41:50;;;;;;;5.75;3.13;;;3.50;99.90;;;;;;4972837;28;20062;-51
2021/04/08 01:44:21;;;;;;;3.47;2.50;;;3.50;99.90;;;;;;4972865;28;20105;-51
2021/04/08 01:46:52;;;;;;;4.35;2.42;;;3.40;99.90;;;;;;4972769;28;20058;-51
2021/04/08 01:49:18;;;;;;;4.60;2.60;;;3.50;99.90;;;;;;4972650;28;20027;-51
2021/04/08 01:51:45;;;;;;;4.00;2.63;;;3.40;99.90;;;;;;4956412;28;20194;-51
2021/04/08 01:54:12;;;;;;;5.35;2.45;;;3.50;99.90;;;;;;4940518;28;20421;-51
2021/04/08 01:56:41;;;;;;;5.50;2.47;;;3.50;99.90;;;;;;4972569;28;20045;-50
2021/04/08 01:59:11;;;;;;;5.10;2.80;;;3.50;99.90;;;;;;4971652;28;20035;-50
2021/04/08 02:01:38;;;;;;;4.18;2.50;;;3.40;99.90;;;;;;4972523;28;20182;-50
2021/04/08 02:04:05;;;;;;;4.53;2.78;;;3.50;99.90;;;;;;5018220;28;20397;-50
2021/04/08 02:06:32;;;;;;;3.42;2.50;;;3.60;99.90;;;;;;5015243;28;20049;-50
2021/04/08 02:08:59;;;;;;;4.95;2.60;;;3.70;99.90;;;;;;5015144;28;20116;-51
2021/04/08 02:11:26;;;;;;;4.75;2.80;;;;;;;;;;5033326;28;20100;-51
2021/04/08 02:13:55;;;;;;;3.78;2.50;;;3.80;99.90;;;;;;5033492;28;20037;-51
2021/04/08 02:16:21;;;;;;;5.03;3.05;;;3.90;99.90;;;;;;5033379;28;20053;-50
2021/04/08 02:18:52;;;;;;;3.85;2.30;;;3.80;99.90;;;;;;5015066;28;20060;-51
2021/04/08 02:21:20;;;;;;;5.95;2.90;;;3.80;99.90;;;;;;5033264;28;20029;-52
2021/04/08 02:23:49;;;;;;;6.05;2.78;;;3.70;99.90;;;;;;4956175;28;20219;-53
2021/04/08 02:26:17;;;;;;;5.15;2.80;;;3.70;99.90;;;;;;4972461;28;20421;-54
2021/04/08 02:28:44;;;;;;;6.38;2.92;;;3.80;99.90;;;;;;4972506;28;20038;-50
2021/04/08 02:31:11;;;;;;;4.90;2.78;;;3.80;99.90;;;;;;4972400;28;20030;-51
2021/04/08 02:33:37;;;;;;;4.55;2.90;;;3.90;99.90;;;;;;4972477;28;20046;-53
2021/04/08 02:36:04;;;;;;;4.32;2.80;;;4.00;99.90;;;;;;4940398;28;20088;-51
2021/04/08 02:38:32;;;;;;;4.65;2.97;;;4.00;99.90;;;;;;4972354;28;20038;-51
2021/04/08 02:41:00;;;;;;;5.60;3.13;;;4.00;99.90;;;;;;4972197;28;20516;-51
2021/04/08 02:43:25;;;;;;;6.15;3.00;;;4.00;99.90;;;;;;4972184;28;20043;-51
2021/04/08 02:45:51;;;;;;;6.90;3.38;;;3.90;99.90;;;;;;4972312;28;20078;-50
2021/04/08 02:48:19;;;;;;;6.07;3.00;;;3.90;99.90;;;;;;4972257;28;20054;-50
2021/04/08 02:50:50;;;;;;;4.15;2.58;;;3.90;99.90;;;;;;4941693;28;20486;-53
2021/04/08 02:53:30;;;;;;;5.18;2.55;;;3.90;99.90;;;;;;4959537;28;20544;-52
2021/04/08 02:56:02;;;;;;;4.05;2.90;;;3.90;99.90;;;;;;5036720;28;20123;-52
2021/04/08 02:58:31;;;;;;;6.03;3.33;;;4.00;99.90;;;;;;5036662;28;20029;-51
2021/04/08 03:01:06;;;;;;;4.10;3.10;;;4.00;99.90;;;;;;5036507;28;20262;-53
2021/04/08 03:03:56;;;;;;;6.55;3.00;;;3.90;99.90;;;;;;5036955;28;20061;-52
2021/04/08 03:06:23;;;;;;;5.13;3.10;;;4.00;99.90;;;;;;5035815;28;20059;-52
2021/04/08 03:08:52;;;;;;;4.07;2.45;;;4.00;99.90;;;;;;5036395;28;20053;-51
2021/04/08 03:11:34;;;;;;;5.15;3.05;;;4.00;99.90;;;;;;5036393;28;20108;-53
2021/04/08 03:14:05;;;;;;;4.55;2.50;;;4.00;99.90;;;;;;5018034;28;20042;-51
2021/04/08 03:16:39;;;;;;;3.85;2.58;;;4.10;99.90;;;;;;5036460;28;20148;-51
2021/04/08 03:19:11;;;;;;;3.97;2.63;;;4.10;99.90;;;;;;5036371;28;20112;-51
2021/04/08 03:21:38;;;;;;;9.13;4.15;;;;;;;;;;5035851;28;20091;-53
2021/04/08 03:24:05;;;;;;;6.05;2.83;;;4.20;99.90;;;;;;5046310;28;20040;-51
2021/04/08 03:26:31;;;;;;;5.80;2.80;;;4.30;99.90;;;;;;5037520;28;20053;-53
2021/04/08 03:28:58;;;;;;;9.05;2.67;;;4.30;99.90;;;;;;5037821;28;20124;-53
2021/04/08 03:31:24;;;;;;;4.63;2.65;;;4.30;99.90;;;;;;5056255;28;20108;-51
2021/04/08 03:33:51;;;;;;;6.13;2.65;;;4.30;99.90;;;;;;5037468;28;20120;-51
2021/04/08 03:36:18;;;;;;;3.90;2.53;;;4.20;99.90;;;;;;5037818;28;20150;-52
2021/04/08 03:38:45;;;;;;;6.68;3.47;;;4.30;99.90;;;;;;5037433;28;20037;-49
2021/04/08 03:41:13;;;;;;;8.65;3.20;;;4.50;99.90;;;;;;5026127;28;20051;-50
2021/04/08 03:43:40;;;;;;;6.43;2.72;;;4.50;99.90;;;;;;5037287;28;20060;-51
2021/04/08 03:46:08;;;;;;;6.03;2.78;;;4.50;99.90;;;;;;5055492;28;20043;-50
2021/04/08 03:48:35;;;;;;;5.90;3.28;;;4.60;99.90;;;;;;5055996;28;20029;-51
2021/04/08 03:51:02;;;;;;;4.50;2.15;;;4.60;99.90;;;;;;5055889;28;20025;-51
2021/04/08 03:53:32;;;;;;;3.53;1.95;;;4.60;99.90;;;;;;5055973;28;20472;-50
2021/04/08 03:55:58;;;;;;;4.32;2.38;;;4.60;99.90;;;;;;5055573;28;20024;-50
2021/04/08 03:58:25;;;;;;;3.88;1.70;;;;;;;;;;5055370;28;20048;-51
2021/04/08 04:00:52;;;;;;;2.72;1.90;;;4.60;99.90;;;;;;5055577;28;20033;-51
2021/04/08 04:03:18;;;;;;;2.88;1.75;;;4.70;99.90;;;;;;5020164;28;20040;-50
2021/04/08 04:05:45;;;;;;;3.28;1.75;;;4.70;99.90;;;;;;5055059;28;20033;-51
2021/04/08 04:08:14;;;;;;;2.35;1.63;;;4.70;99.90;;;;;;5055417;28;20029;-51
2021/04/08 04:10:41;;;;;;;2.88;1.92;;;4.70;99.90;;;;;;5055293;28;20507;-50
2021/04/08 04:13:10;;;;;;;3.53;2.08;;;4.60;99.90;;;;;;5055764;28;20020;-50
2021/04/08 04:15:38;;;;;;;5.60;2.22;;;4.60;99.90;;;;;;5055169;28;20029;-51
2021/04/08 04:18:08;;;;;;;3.88;1.63;;;4.60;99.90;;;;;;5054970;28;20036;-51
2021/04/08 04:20:35;;;;;;;2.53;1.50;;;4.60;99.90;;;;;;5020476;28;20037;-51
2021/04/08 04:23:02;;;;;;;3.58;1.70;;;4.60;99.90;;;;;;5053495;28;20115;-50
2021/04/08 04:25:28;;;;;;;2.72;1.67;;;4.70;99.90;;;;;;5054662;28;20053;-51
2021/04/08 04:27:54;;;;;;;1.75;1.58;;;4.70;99.90;;;;;;5054839;28;20028;-52
2021/04/08 04:30:20;;;;;;;2.58;1.70;;;4.90;99.90;;;;;;5054274;28;20036;-51
2021/04/08 04:32:46;;;;;;;3.33;1.77;;;;;;;;;;5054524;28;20475;-51
2021/04/08 04:35:15;;;;;;;2.15;1.52;;;5.00;99.90;;;;;;5020126;28;20033;-51
2021/04/08 04:37:41;;;;;;;3.45;2.33;;;5.00;99.90;;;;;;5020939;28;20033;-51
2021/04/08 04:40:08;;;;;;;2.60;1.83;;;5.10;99.90;;;;;;5054008;28;20032;-51
2021/04/08 04:42:34;;;;;;;3.65;2.30;;;5.10;99.90;;;;;;5008580;28;20477;-51
2021/04/08 04:45:00;;;;;;;3.00;1.92;;;5.10;99.90;;;;;;5011324;28;20045;-51
2021/04/08 04:47:26;;;;;;;2.67;1.77;;;5.10;99.90;;;;;;4980603;28;20528;-51
2021/04/08 04:49:52;;;;;;;5.50;2.05;;;5.20;99.90;;;;;;5013170;28;20025;-51
2021/04/08 04:52:18;;;;;;;2.30;1.40;;;5.30;99.90;;;;;;5012541;28;20042;-51
2021/04/08 04:54:44;;;;;;;3.00;1.60;;;5.30;99.90;;;;;;4964247;28;20420;-50
2021/04/08 04:57:10;;;;;;;2.65;1.75;;;5.40;99.90;;;;;;5012732;28;20038;-50
2021/04/08 04:59:36;;;;;;;3.65;1.50;;;5.40;99.90;;;;;;5012641;28;20428;-50
2021/04/08 05:02:02;;;;;;;4.88;2.58;;;;;;;;;;5011996;28;20438;-50
2021/04/08 05:04:28;;;;;;;3.45;1.80;;;;;;;;;;5011732;28;20041;-50
2021/04/08 05:06:54;;;;;;;4.97;1.73;;;5.60;99.90;;;;;;5012591;28;20061;-50
2021/04/08 05:09:20;;;;;;;6.35;2.05;;;;;;;;;;5012554;28;20080;-50
2021/04/08 05:11:46;;;;;;;6.15;1.95;;;5.80;99.90;;;;;;5012417;28;20125;-50
2021/04/08 05:14:11;;;;;;;4.57;2.88;;;6.00;99.90;;;;;;5043647;28;20045;-51
2021/04/08 05:16:37;;;;;;;4.63;2.05;;;6.10;99.90;;;;;;5053308;28;20476;-50
2021/04/08 05:19:03;;;;;;;2.35;1.67;;;6.00;99.90;;;;;;5053738;28;20032;-50
2021/04/08 05:21:29;;;;;;;4.22;1.95;;;6.20;99.90;;;;;;5053932;28;20090;-50
2021/04/08 05:23:54;;;;;;;3.42;1.85;;;6.20;99.90;;;;;;5053803;28;20094;-50
2021/04/08 05:26:20;;;;;;;1.83;1.13;;;6.30;99.90;;;;;;5053007;28;20141;-50
2021/04/08 05:28:46;;;;;;;2.22;1.48;;;6.40;99.90;;;;;;5053575;28;20384;-50
2021/04/08 05:31:12;;;;;;;2.65;1.67;;;6.50;99.90;;;;;;5028113;28;20037;-50
2021/04/08 05:33:38;;;;;;;3.20;1.83;;;6.50;99.90;;;;;;5051498;28;20032;-51
2021/04/08 05:36:04;;;;;;;2.78;1.88;;;6.50;99.90;;;;;;5035217;28;20040;-50
2021/04/08 05:38:30;;;;;;;3.25;2.35;;;;;;;;;;5035395;28;20037;-50
2021/04/08 05:40:56;;;;;;;5.03;2.33;;;6.50;99.90;;;;;;5053594;28;20166;-50
2021/04/08 05:43:22;;;;;;;4.13;2.05;;;6.50;99.90;;;;;;5035669;28;20509;-50
2021/04/08 05:45:47;;;;;;;3.63;1.70;;;6.60;99.90;;;;;;5035905;28;20166;-50
2021/04/08 05:48:13;;;;;;;3.22;2.00;;;6.50;99.90;;;;;;5053905;28;20035;-50
2021/04/08 05:50:40;;;;;;;4.28;2.30;;;6.50;99.90;;;;;;5053727;28;20108;-50
2021/04/08 05:53:06;;;;;;;4.03;2.30;;;6.50;99.90;;;;;;5053384;28;20583;-50
2021/04/08 05:55:31;;;;;;;4.75;2.63;;;6.50;99.90;;;;;;5035482;28;20120;-50
2021/04/08 05:57:57;;;;;;;4.53;2.63;;;6.50;99.90;;;;;;5035395;28;20040;-50
2021/04/08 06:00:23;;;;;;;7.10;3.10;;;6.50;99.90;;;;;;5053362;28;20395;-50
2021/04/08 06:02:49;;;;;;;4.95;2.75;;;;;;;;;;5053829;28;20421;-50
2021/04/08 06:05:15;;;;;;;6.55;3.45;;;6.10;99.90;;;;;;5053384;28;20407;-50
2021/04/08 06:07:42;;;;;;;3.28;2.60;;;6.20;99.90;;;;;;5035191;28;20049;-50
2021/04/08 06:10:09;;;;;;;10.95;3.97;;;6.20;99.90;;;;;;5053176;28;20032;-50
2021/04/08 06:12:39;;;;;;;13.48;5.10;;;6.30;99.90;;;;;;5053390;28;20423;-50
2021/04/08 06:15:05;;;;;;;8.55;3.97;;;6.30;99.90;;;;;;5053688;28;20460;-50
2021/04/08 06:17:31;;;;;;;4.45;2.30;;;6.40;99.90;;;;;;5053336;28;20535;-50
2021/04/08 06:19:57;;;;;;;3.22;1.73;;;;;;;;;;5053446;28;20120;-50
2021/04/08 06:22:23;;;;;;;6.40;2.65;;;;;;;;;;5053600;28;20057;-50
2021/04/08 06:24:49;;;;;;;8.75;2.80;;;6.70;99.90;;;;;;5053575;28;20033;-50
2021/04/08 06:27:15;;;;;;;4.45;2.28;;;6.90;99.90;;;;;;5005707;28;20048;-50
2021/04/08 06:29:40;;;;;;;6.50;2.65;;;6.80;99.90;;;;;;5057691;28;20025;-50
2021/04/08 06:32:06;;;;;;;3.78;2.10;;;7.00;99.90;;;;;;5057437;28;20066;-50
2021/04/08 06:34:32;;;;;;;3.08;2.00;;;7.00;99.90;;;;;;5022099;28;20043;-50
2021/04/08 06:36:58;;;;;;;3.75;1.90;;;7.10;99.90;;;;;;5057190;28;20039;-50
2021/04/08 06:39:24;;;;;;;5.18;2.50;;;7.10;99.90;;;;;;5057046;28;20025;-50
2021/04/08 06:41:50;;;;;;;3.22;2.10;;;7.30;99.90;;;;;;5038676;28;20039;-50
2021/04/08 06:44:19;;;;;;;6.85;3.28;;;7.40;99.90;;;;;;5056746;28;20029;-50
2021/04/08 06:46:46;;;;;;;4.18;2.05;;;7.20;99.90;;;;;;5050011;28;20125;-50
2021/04/08 06:49:20;;;;;;;3.08;1.83;;;7.30;99.90;;;;;;4982825;28;20044;-50
2021/04/08 06:51:50;;;;;;;3.75;2.00;;;7.30;99.90;;;;;;5055668;28;20104;-50
2021/04/08 06:54:17;;;;;;;4.03;2.45;;;7.00;99.90;;;;;;5021311;28;20041;-50
2021/04/08 06:56:43;;;;;;;4.30;2.08;;;6.90;99.90;;;;;;5054692;28;20021;-50
2021/04/08 06:59:13;;;;;;;3.20;1.95;;;6.80;99.90;;;;;;5055657;28;20036;-50
2021/04/08 07:01:40;;;;;;;2.50;1.10;;;6.90;99.90;;;;;;5052669;28;20094;-50
2021/04/08 07:04:06;;;;;;;4.25;1.83;;;6.90;99.90;;;;;;5053182;28;20449;-50
2021/04/08 07:06:32;;;;;;;3.15;2.22;;;7.10;99.90;;;;;;5053977;28;20120;-50
2021/04/08 07:08:58;;;;;;;3.55;1.75;;;7.20;99.90;;;;;;5038848;28;20029;-50
2021/04/08 07:11:24;;;;;;;3.00;2.05;;;;;;;;;;5028694;28;20044;-50
2021/04/08 07:13:50;;;;;;;5.30;2.42;;;7.40;99.90;;;;;;5054510;28;20025;-50
2021/04/08 07:16:16;;;;;;;6.50;3.20;;;;;;;;;;5054404;28;20044;-50
2021/04/08 07:18:42;;;;;;;3.20;1.92;;;7.50;99.90;;;;;;5019390;28;20035;-51
2021/04/08 07:21:09;;;;;;;1.52;1.30;;;;;;;;;;5035431;28;20108;-51
2021/04/08 07:23:35;;;;;;;3.47;2.25;;;7.70;99.90;;;;;;5054548;28;20380;-50
2021/04/08 07:26:11;;;;;;;2.38;1.65;;;8.00;99.90;;;;;;5053970;28;20065;-51
2021/04/08 07:28:38;;;;;;;2.28;1.65;;;;;;;;;;5038286;28;20033;-50
2021/04/08 07:31:30;;;;;;;3.33;1.45;;;8.40;99.90;;;;;;5052973;28;20033;-47
2021/04/08 07:33:57;;;;;;;1.70;1.40;;;8.40;99.90;;;;;;5017678;28;20033;-47
2021/04/08 07:36:30;;;;;;;2.42;1.58;;;8.30;99.90;;;;;;5053322;28;20037;-51
2021/04/08 07:38:58;;;;;;;2.13;1.48;;;8.40;99.90;;;;;;5036655;28;20037;-55
2021/04/08 07:41:26;;;;;;;2.53;1.50;;;;;;;;;;5053730;28;20039;-54
2021/04/08 07:44:06;;;;;;;3.15;1.85;;;;;;;;;;5033581;28;20084;-50
2021/04/08 07:46:37;;;;;;;3.00;1.58;;;9.00;99.90;;;;;;5053601;28;20033;-53
2021/04/08 07:49:24;;;;;;;2.92;1.60;;;9.00;99.90;;;;;;5021170;28;20041;-51
2021/04/08 07:51:50;;;;;;;3.13;1.30;;;9.20;99.90;;;;;;5053277;28;20419;-56
2021/04/08 07:54:17;;;;;;;2.25;1.40;;;;;;;;;;5053887;28;20499;-50
2021/04/08 07:56:44;;;;;;;1.67;1.52;;;9.20;99.90;;;;;;5021345;28;20911;-54
2021/04/08 07:59:16;;;;;;;6.57;2.85;;;;;;;;;;5053482;28;20017;-48
2021/04/08 08:01:46;;;;;;;;;;;9.40;99.90;;;;;;5053330;28;20032;-52
2021/04/08 08:04:19;;;;;;;2.30;1.00;;;;;;;;;;5018448;28;19915;-50
2021/04/08 08:06:45;;;;;;;2.13;1.42;;;9.90;99.90;;;;;;5018106;28;20499;-57
2021/04/08 08:09:11;;;;;;;1.67;1.13;;;;;;;;;;5021388;28;20064;-44
2021/04/08 08:11:41;;;;;;;2.35;1.30;;;;;;;;;;5053372;28;20096;-51
2021/04/08 08:14:09;;;;;;;1.23;1.00;;;;;;;;;;5020802;28;20060;-51
2021/04/08 08:16:35;;;;;;;2.50;1.40;;;;;;;;;;5053098;28;20025;-53
2021/04/08 08:19:02;;;;;;;2.13;1.10;;;10.70;99.90;;;;;;5054162;28;20032;-45
2021/04/08 08:21:27;;;;;;;3.05;1.23;;;10.70;99.90;;;;;;5052323;28;20033;-50
2021/04/08 08:23:55;;;;;;;5.18;1.27;;;;;;;;;;5052700;28;20091;-43
2021/04/08 08:26:37;;;;;;;2.90;1.60;;;;;;;;;;5051861;28;20353;-54
2021/04/08 08:29:13;;;;;;;2.03;1.35;;;10.90;99.90;;;;;;5050493;28;20033;-45
2021/04/08 08:31:50;;;;;;;1.52;1.17;;;;;;;;;;5052964;28;20400;-52
2021/04/08 08:34:19;;;;;;;2.97;1.83;;;11.10;96.80;;;;;;5060359;28;20035;-55
2021/04/08 08:36:49;;;;;;;2.63;1.38;;;11.00;94.60;;;;;;5052813;28;20029;-53
2021/04/08 08:39:16;;;;;;;2.67;1.40;;;;;;;;;;5053578;28;20086;-53
2021/04/08 08:41:43;;;;;;;5.25;2.13;;;;;;;;;;5053635;28;20444;-55
2021/04/08 08:44:11;;;;;;;3.53;1.80;;;11.60;97.20;;;;;;5053825;28;20074;-53
2021/04/08 08:46:44;;;;;;;2.30;1.60;;;11.40;95.10;;;;;;5051045;28;20029;-47
2021/04/08 08:49:12;;;;;;;4.07;1.40;;;11.80;96.80;;;;;;5025976;28;20044;-48
2021/04/08 08:51:38;;;;;;;2.95;2.00;;;11.60;95.90;;;;;;5051832;28;20025;-49
2021/04/08 08:54:05;;;;;;;3.40;2.05;;;11.50;95.00;;;;;;5053168;28;20033;-54
2021/04/08 08:56:33;;;;;;;3.15;1.83;;;11.60;95.10;;;;;;5018066;28;20073;-54
2021/04/08 08:59:00;;;;;;;3.25;1.92;;;;;;;;;;5053414;28;20440;-54
2021/04/08 09:01:26;;;;;;;3.00;1.90;;;;;;;;;;5053296;28;20024;-53
2021/04/08 09:03:52;;;;;;;2.67;1.75;;;12.70;89.30;;;;;;5016057;28;20445;-53
2021/04/08 09:06:21;;;;;;;3.90;1.95;;;12.80;89.40;;;;;;5034014;28;20099;-52
2021/04/08 09:08:53;;;;;;;2.58;1.30;;;13.20;93.50;;;;;;5052950;28;20048;-63
2021/04/08 09:11:26;;;;;;;3.92;2.00;;;13.30;91.40;;;;;;5052557;28;20024;-56
2021/04/08 09:13:52;;;;;;;1.80;1.30;;;;;;;;;;5050549;28;20463;-54
2021/04/08 09:16:18;;;;;;;4.18;2.10;;;12.30;90.00;;;;;;5053219;28;20103;-55
2021/04/08 09:19:00;;;;;;;2.72;1.60;;;13.10;87.70;;;;;;5023375;28;20567;-54
2021/04/08 09:21:27;;;;;;;1.95;1.65;;;;;;;;;;5053918;28;20025;-55
2021/04/08 09:24:09;;;;;;;3.80;2.00;;;13.10;92.60;;;;;;5053993;28;20029;-54
2021/04/08 09:26:37;;;;;;;3.33;1.20;;;;;;;;;;5035284;28;20047;-54
2021/04/08 09:29:03;;;;;;;4.80;2.03;;;;;;;;;;5054202;28;20425;-55
2021/04/08 09:31:30;;;;;;;1.15;1.00;;;12.20;77.10;;;;;;5054011;28;20372;-54
2021/04/08 09:33:58;;;;;;;1.88;1.15;;;12.70;72.00;;;;;;5053870;28;20097;-54
2021/04/08 09:36:24;;;;;;;2.42;1.38;;;12.80;73.90;;;;;;5035401;28;20040;-54
2021/04/08 09:39:00;;;;;;;3.60;1.65;;;;;;;;;;5035235;28;20408;-54
2021/04/08 09:41:45;;;;;;;3.08;1.75;;;13.60;90.40;;;;;;5053926;28;20044;-54
2021/04/08 09:44:12;;;;;;;1.98;1.23;;;13.30;90.20;;;;;;5053538;28;20036;-54
2021/04/08 09:46:51;;;;;;;1.60;1.00;;;13.60;73.70;;;;;;5053470;28;20041;-54
2021/04/08 09:49:36;;;;;;;1.90;1.50;;;13.40;71.10;;;;;;5035441;28;20033;-54
2021/04/08 09:52:03;;;;;;;3.80;1.70;;;;;;;;;;5042867;28;20378;-54
2021/04/08 09:54:46;;;;;;;1.63;1.10;;;14.50;99.90;;;;;;5053729;28;20032;-54
2021/04/08 09:57:13;;;;;;;2.28;1.25;;;;;;;;;;5053890;28;20383;-54
2021/04/08 09:59:58;;;;;;;2.53;1.70;;;;;;;;;;5052873;28;20519;-54
2021/04/08 10:02:25;;;;;;;2.10;1.15;;;15.30;92.90;;;;;;5053464;28;20039;-54
2021/04/08 10:05:17;;;;;;;3.08;1.38;;;;;;;;;;5053383;28;20151;-54
2021/04/08 10:07:51;;;;;;;3.17;1.55;;;15.30;72.60;;;;;;5050717;28;20541;-54
2021/04/08 10:10:18;;;;;;;3.53;1.40;;;15.10;69.20;;;;;;5053494;28;20063;-53
2021/04/08 10:12:44;;;;;;;3.13;1.70;;;15.10;67.60;;;;;;5053221;28;20029;-54
2021/04/08 10:15:15;;;;;;;3.10;1.67;;;14.90;67.70;;;;;;5034873;28;20078;-53
2021/04/08 10:17:41;;;;;;;3.63;1.63;;;14.40;68.50;;;;;;5053340;28;20503;-54
2021/04/08 10:20:08;;;;;;;2.08;1.10;;;14.50;68.70;;;;;;5054047;28;20055;-53
2021/04/08 10:22:45;;;;;;;2.00;0.98;;;14.00;62.30;;;;;;5034677;28;20033;-54
2021/04/08 10:25:12;;;;;;;1.83;0.90;;;;;;;;;;5053192;28;20079;-54
2021/04/08 10:27:38;;;;;;;5.32;1.92;;;;;;;;;;5053519;28;20170;-54
2021/04/08 10:30:13;;;;;;;4.32;2.13;;;13.10;68.20;;;;;;5053562;28;20025;-54
2021/04/08 10:32:41;;;;;;;4.85;2.80;;;13.10;79.60;;;;;;5001553;28;20107;-54
2021/04/08 10:35:29;;;;;;;1.77;1.20;;;13.80;69.60;;;;;;5053401;28;20029;-53
2021/04/08 10:38:05;;;;;;;3.25;1.85;;;13.20;69.60;;;;;;5053355;28;20067;-53
2021/04/08 10:40:31;;;;;;;5.80;2.85;;;13.40;74.80;;;;;;5053229;28;20555;-54
2021/04/08 10:43:11;;;;;;;1.90;1.38;;;13.30;73.20;;;;;;5053115;28;20345;-54
2021/04/08 10:45:37;;;;;;;1.40;1.30;;;13.80;72.10;;;;;;5053023;28;20361;-54
2021/04/08 10:48:06;;;;;;;2.25;1.67;;;13.90;72.10;;;;;;5053326;28;20375;-53
2021/04/08 10:50:32;;;;;;;2.72;1.65;;;13.40;67.10;;;;;;5053088;28;20029;-54
2021/04/08 10:53:00;;;;;;;2.88;1.33;;;13.50;66.00;;;;;;5052936;28;20021;-54
2021/04/08 10:55:26;;;;;;;2.25;1.65;;;14.00;66.90;;;;;;5053483;28;20456;-53
2021/04/08 10:57:53;;;;;;;1.55;1.40;;;;;;;;;;5053194;28;20074;-54
2021/04/08 11:00:19;;;;;;;4.32;0.80;;;14.50;78.80;;;;;;5053452;28;20025;-54
2021/04/08 11:02:48;;;;;;;3.67;2.00;;;14.40;81.70;;;;;;5052729;28;20025;-53
2021/04/08 11:05:14;;;;;;;4.15;1.75;;;;;;;;;;5052960;28;20554;-53
2021/04/08 11:07:41;;;;;;;0.93;0.73;;;;;;;;;;5052785;28;20052;-54
2021/04/08 11:10:18;;;;;;;4.18;1.80;;;;;;;;;;5053126;28;20119;-53
2021/04/08 11:12:47;;;;;;;2.00;1.02;;;;;;;;;;5055788;28;20486;-54
2021/04/08 11:15:13;;;;;;;2.03;1.23;;;12.70;95.10;;;;;;5056533;28;20483;-53
2021/04/08 11:17:41;;;;;;;1.63;1.05;;;;;;;;;;5038598;28;20460;-53
2021/04/08 11:20:07;;;;;;;4.82;2.50;;;;;;;;;;5056428;28;20056;-53
2021/04/08 11:22:34;;;;;;;2.08;1.40;;;12.70;93.80;;;;;;5056318;28;20058;-54
2021/04/08 11:25:06;;;;;;;2.85;1.42;;;12.10;82.60;;;;;;5037909;28;20067;-54
2021/04/08 11:27:43;;;;;;;0.85;0.85;;;12.90;69.90;;;;;;5021035;28;20053;-54
2021/04/08 11:30:14;;;;;;;2.70;1.58;;;13.30;63.60;;;;;;5056219;28;20082;-54
2021/04/08 11:32:50;;;;;;;5.65;2.33;;;13.00;63.20;;;;;;5056082;28;20487;-53
2021/04/08 11:35:43;;;;;;;1.65;1.08;;;13.30;61.40;;;;;;5037876;28;20029;-54
2021/04/08 11:38:24;;;;;;;2.00;1.02;;;13.50;64.40;;;;;;4992863;28;20042;-53
2021/04/08 11:41:11;;;;;;;1.92;1.20;;;13.40;86.60;;;;;;4978450;28;20046;-54
2021/04/08 11:43:45;;;;;;;1.40;1.20;;;13.70;66.40;;;;;;4993876;28;20069;-54
2021/04/08 11:46:29;;;;;;;1.65;1.27;;;13.90;65.80;;;;;;4994733;28;20052;-54
2021/04/08 11:48:57;;;;;;;2.17;1.17;;;13.70;64.40;;;;;;4994515;28;20485;-54
2021/04/08 11:51:27;;;;;;;1.27;0.82;;;13.90;68.10;;;;;;4978061;28;20130;-53
2021/04/08 11:53:54;;;;;;;2.63;1.40;;;13.60;65.40;;;;;;4994388;28;20416;-53
2021/04/08 11:56:43;;;;;;;1.83;1.23;;;13.60;63.50;;;;;;4994581;28;20457;-53
2021/04/08 11:59:18;;;;;;;1.92;1.15;;;13.80;64.50;;;;;;4917546;29;20047;-53
2021/04/08 12:01:53;;;;;;;3.88;2.35;;;13.60;63.70;;;;;;4917431;29;20124;-54
2021/04/08 12:04:20;;;;;;;5.22;1.95;;;13.60;63.30;;;;;;4917489;29;20559;-54
2021/04/08 12:06:48;;;;;;;1.40;1.30;;;14.00;66.20;;;;;;4917265;29;20395;-54
2021/04/08 12:09:14;;;;;;;1.60;1.00;;;14.10;86.00;;;;;;4890304;29;20065;-54
2021/04/08 12:11:54;;;;;;;7.10;3.65;;;14.10;89.80;;;;;;4955421;29;20047;-53
2021/04/08 12:14:21;;;;;;;2.80;1.75;;;13.60;66.80;;;;;;4955114;29;20171;-54
2021/04/08 12:17:07;;;;;;;0.98;0.82;;;;;;;;;;4955420;29;20563;-54
2021/04/08 12:19:35;;;;;;;7.25;3.45;;;14.50;62.20;;;;;;4955195;29;20410;-54
2021/04/08 12:22:11;;;;;;;9.98;2.97;;;14.70;63.60;;;;;;4954970;29;20039;-53
2021/04/08 12:24:39;;;;;;;11.38;4.70;;;14.60;62.30;;;;;;4954505;29;20033;-53
2021/04/08 12:27:20;;;;;;;4.95;1.98;;;14.20;62.70;;;;;;4954711;29;20047;-54
2021/04/08 12:29:46;;;;;;;5.32;2.15;;;14.60;64.30;;;;;;4955045;29;20066;-53
2021/04/08 12:32:12;;;;;;;1.48;1.10;;;14.70;62.70;;;;;;4954943;29;20096;-53
2021/04/08 12:34:38;;;;;;;1.42;0.98;;;;;;;;;;4954897;29;20027;-53
2021/04/08 12:37:04;;;;;;;2.78;0.90;;;15.40;64.20;;;;;;5044127;28;20044;-53
2021/04/08 12:39:29;;;;;;;1.10;1.00;;;15.30;61.90;;;;;;5054982;28;20360;-53
2021/04/08 12:41:55;;;;;;;2.88;1.65;;;15.20;59.80;;;;;;5003384;28;20041;-53
2021/04/08 12:44:21;;;;;;;5.63;2.10;;;14.80;58.90;;;;;;5003118;28;20426;-53
2021/04/08 12:46:49;;;;;;;3.42;2.20;;;14.50;57.90;;;;;;5054466;28;20044;-53
2021/04/08 12:49:15;;;;;;;1.80;1.27;;;14.20;58.10;;;;;;5054472;28;20059;-53
2021/04/08 12:51:40;;;;;;;1.48;1.02;;;14.20;58.70;;;;;;5054718;28;20068;-54
2021/04/08 12:54:06;;;;;;;1.58;1.20;;;14.20;60.40;;;;;;5054727;28;20029;-53
2021/04/08 12:56:32;;;;;;;3.08;1.73;;;14.00;59.30;;;;;;5054445;28;20477;-53
2021/04/08 12:59:00;;;;;;;1.58;1.00;;;14.20;74.80;;;;;;5017653;28;20060;-53
2021/04/08 13:01:27;;;;;;;3.45;1.02;;;;;;;;;;5053166;28;20025;-53
2021/04/08 13:03:53;;;;;;;1.23;0.90;;;;;;;;;;5034515;28;20049;-53
2021/04/08 13:06:19;;;;;;;1.63;1.02;;;13.40;61.30;;;;;;5052922;28;20037;-53
2021/04/08 13:08:45;;;;;;;0.95;0.80;;;13.30;62.80;;;;;;5017693;28;20045;-53
2021/04/08 13:11:11;;;;;;;1.00;0.73;;;13.00;62.40;;;;;;5052879;28;20096;-54
2021/04/08 13:13:37;;;;;;;2.22;1.02;;;12.60;62.90;;;;;;5052874;28;20025;-54
2021/04/08 13:16:03;;;;;;;6.88;2.70;;;12.70;65.80;;;;;;5052847;28;20487;-53
2021/04/08 13:18:28;;;;;;;8.20;3.72;;;12.70;62.40;;;;;;5052754;28;20027;-53
2021/04/08 13:20:54;;;;;;;1.98;1.42;;;12.70;64.70;;;;;;5052649;28;20043;-53